METAR AND TAF INFORMATION
METAR FOR SBDN
ADDS - METARS form results

(0600 UTC 23 May 2019)
Data provider http://aviationweather.gov/metar/data/
 
Forecast for: SBDN (PRESIDENTE PRUDE, BR)
Text: TAF SBDN 222100Z 2300/2312 23004KT CAVOK TX23/2300Z TN20/2309Z RMK PCX
Forecast period: 0000 to 1200 UTC 23 May 2019
Forecast type: FROM: standard forecast or significant change
Winds: from the SW (230 degrees) at 5 MPH (4 knots; 2.1 m/s)
Visibility: 6 or more miles 10+ km)
Ceiling: unknown
Clouds: missing
Weather: no significant weather forecast for this period

 AIRPORT MAP

 RUNWAY INFORMATION
Runway 12 Runway length 6923 ft Runway width 115 ft
Runway elevation 0 ft Runway displaced threshold 0 ft Runway heading 0
Runway 30 Runway length 6923 ft Runway width 115 ft
Runway elevation 0 ft Runway displaced threshold 0 ft Runway heading 0

 AIRPORT FREQUENCIES
Type AFIS Name PRUDENTE R Frequency 118.45 MHZ
Type APP Name PRUDENTE A Frequency 118.45 MHZ
Type TWR Name PRUDENTE T Frequency 118.45 MHZ

 AIRPORT NEAR NAVIGATION AIDS
Type VOR-DME Name Prudente Frequency 113500 KHZ
Type NDB Name Prudente Frequency 225 KHZ



Powered by Virtual Airlines Manager [v2.6.2]